createdAt,value
2019-04-21T00:00:20.258Z,0.00
2019-04-21T00:01:18.369Z,0.00
2019-04-21T00:02:24.260Z,0.00
2019-04-21T00:03:25.670Z,0.00
2019-04-21T00:04:32.181Z,0.00
2019-04-21T00:05:35.149Z,0.00
2019-04-21T00:06:36.290Z,0.00
2019-04-21T00:07:40.335Z,0.00
2019-04-21T00:08:35.965Z,0.00
2019-04-21T00:09:39.803Z,0.00
2019-04-21T00:10:43.123Z,0.00
2019-04-21T00:12:38.919Z,0.00
2019-04-21T00:13:35.095Z,0.00
2019-04-21T00:14:31.458Z,0.00
2019-04-21T00:15:27.761Z,0.00
2019-04-21T00:16:24.481Z,0.00
2019-04-21T00:17:21.338Z,0.00
2019-04-21T00:18:18.984Z,0.00
2019-04-21T00:19:21.737Z,0.00
2019-04-21T00:20:26.096Z,0.00
2019-04-21T00:21:26.578Z,0.00
2019-04-21T00:22:31.526Z,0.00
2019-04-21T00:23:33.459Z,0.00
2019-04-21T00:24:28.883Z,0.00
2019-04-21T00:25:32.113Z,0.00
2019-04-21T00:26:42.733Z,0.00
2019-04-21T00:27:35.808Z,0.00
2019-04-21T00:28:42.384Z,0.00
2019-04-21T00:29:40.931Z,0.00
2019-04-21T00:30:39.782Z,0.00
2019-04-21T00:31:34.130Z,0.00
2019-04-21T00:32:28.264Z,0.00
2019-04-21T00:33:22.974Z,0.00
2019-04-21T00:34:17.803Z,0.00
2019-04-21T00:35:21.033Z,0.00
2019-04-21T00:36:25.521Z,0.00
2019-04-21T00:37:29.693Z,0.00
2019-04-21T00:38:51.476Z,0.00
2019-04-21T00:39:55.695Z,0.00
2019-04-21T00:40:41.508Z,0.00
2019-04-21T00:41:39.113Z,0.00
2019-04-21T00:42:36.950Z,0.00
2019-04-21T00:43:35.310Z,0.00
2019-04-21T00:44:31.565Z,0.00
2019-04-21T00:45:31.459Z,0.00
2019-04-21T00:46:30.830Z,0.00
2019-04-21T00:47:38.704Z,0.00
2019-04-21T00:48:43.954Z,0.00
2019-04-21T00:49:32.846Z,0.00
2019-04-21T00:50:40.796Z,0.00
2019-04-21T00:51:49.870Z,0.00
2019-04-21T00:52:51.052Z,0.00
2019-04-21T00:53:43.511Z,0.00
2019-04-21T00:54:49.864Z,0.00
2019-04-21T00:55:45.868Z,0.00
2019-04-21T00:56:45.592Z,0.00
2019-04-21T00:57:45.754Z,0.00
2019-04-21T00:58:39.605Z,0.00
2019-04-21T00:59:40.470Z,0.00
2019-04-21T01:00:38.529Z,0.00
2019-04-21T01:01:42.589Z,0.00
2019-04-21T01:02:48.543Z,0.00
2019-04-21T01:03:43.293Z,0.00
2019-04-21T01:04:43.249Z,0.00
2019-04-21T01:05:42.913Z,0.00
2019-04-21T01:06:45.048Z,0.00
2019-04-21T01:07:36.036Z,0.00
2019-04-21T01:08:40.172Z,0.00
2019-04-21T01:09:31.732Z,0.00
2019-04-21T01:10:31.127Z,0.00
2019-04-21T01:11:40.229Z,0.00
2019-04-21T01:12:37.985Z,0.00
2019-04-21T01:13:41.516Z,0.00
2019-04-21T01:14:41.912Z,0.00
2019-04-21T01:15:43.572Z,0.00
2019-04-21T01:16:40.869Z,0.00
2019-04-21T01:17:41.810Z,0.00
2019-04-21T01:18:39.399Z,0.00
2019-04-21T01:19:37.353Z,0.00
2019-04-21T01:20:18.088Z,0.00
2019-04-21T01:21:17.124Z,0.00
2019-04-21T01:22:17.116Z,0.00
2019-04-21T01:23:17.105Z,0.00
2019-04-21T01:24:26.182Z,0.00
2019-04-21T01:25:25.857Z,0.00
2019-04-21T01:26:29.615Z,0.00
2019-04-21T01:27:39.798Z,0.00
2019-04-21T01:28:34.404Z,0.00
2019-04-21T01:29:41.483Z,0.00
2019-04-21T01:30:42.549Z,0.00
2019-04-21T01:31:32.919Z,0.00
2019-04-21T01:32:43.868Z,0.00
2019-04-21T01:33:39.664Z,0.00
2019-04-21T01:34:40.830Z,0.00
2019-04-21T01:35:39.658Z,0.00
2019-04-21T01:36:34.721Z,0.00
2019-04-21T01:37:44.172Z,0.00
2019-04-21T01:38:40.087Z,0.00
2019-04-21T01:39:42.795Z,0.00
2019-04-21T01:40:42.844Z,0.00
2019-04-21T01:41:43.073Z,0.00
2019-04-21T01:42:41.175Z,0.00
2019-04-21T01:43:33.489Z,0.00
2019-04-21T01:44:41.919Z,0.00
2019-04-21T01:45:41.028Z,0.00
2019-04-21T01:46:33.654Z,0.00
2019-04-21T01:47:31.386Z,0.00
2019-04-21T01:48:36.071Z,0.00
2019-04-21T01:49:28.266Z,0.00
2019-04-21T01:50:36.399Z,0.00
2019-04-21T01:51:36.771Z,0.00
2019-04-21T01:52:45.448Z,0.00
2019-04-21T01:53:36.659Z,0.00
2019-04-21T01:54:45.242Z,0.00
2019-04-21T01:55:36.806Z,0.00
2019-04-21T01:56:37.078Z,0.00
2019-04-21T01:57:34.106Z,0.00
2019-04-21T01:58:28.924Z,0.00
2019-04-21T01:59:30.425Z,0.00
2019-04-21T02:00:32.747Z,0.00
2019-04-21T02:01:49.956Z,0.00
2019-04-21T02:02:41.433Z,0.00
2019-04-21T02:03:56.974Z,0.00
2019-04-21T02:04:41.193Z,0.00
2019-04-21T02:05:44.005Z,0.00
2019-04-21T02:06:39.102Z,0.00
2019-04-21T02:07:39.063Z,0.00
2019-04-21T02:08:34.688Z,0.00
2019-04-21T02:09:37.484Z,0.00
2019-04-21T02:10:44.432Z,0.00
2019-04-21T02:11:40.754Z,0.00
2019-04-21T02:12:42.746Z,0.00
2019-04-21T02:13:35.334Z,0.00
2019-04-21T02:14:41.551Z,0.00
2019-04-21T02:15:56.351Z,0.00
2019-04-21T02:16:34.518Z,0.00
2019-04-21T02:17:36.774Z,0.00
2019-04-21T02:18:34.964Z,0.00
2019-04-21T02:19:31.198Z,0.00
2019-04-21T02:20:30.437Z,0.00
2019-04-21T02:21:31.697Z,0.00
2019-04-21T02:22:56.034Z,0.00
2019-04-21T02:24:42.359Z,0.00
2019-04-21T02:25:39.756Z,0.00
2019-04-21T02:26:41.566Z,0.00
2019-04-21T02:27:36.233Z,0.00
2019-04-21T02:28:42.354Z,0.00
2019-04-21T02:29:41.545Z,0.00
2019-04-21T02:31:05.378Z,0.00
2019-04-21T02:31:57.213Z,0.00
2019-04-21T02:32:47.975Z,0.00
2019-04-21T02:33:54.250Z,0.00
2019-04-21T02:34:57.525Z,0.00
2019-04-21T02:36:15.081Z,0.00
2019-04-21T02:37:00.364Z,0.00
2019-04-21T02:37:54.951Z,0.00
2019-04-21T02:39:07.693Z,0.00
2019-04-21T02:39:51.364Z,0.00
2019-04-21T02:41:50.531Z,0.00
2019-04-21T02:43:07.420Z,0.00
2019-04-21T02:43:52.140Z,0.00
2019-04-21T02:44:51.795Z,0.00
2019-04-21T02:45:56.054Z,0.00
2019-04-21T02:46:42.386Z,0.00
2019-04-21T02:48:04.369Z,0.00
2019-04-21T02:49:56.897Z,0.00
2019-04-21T02:55:44.512Z,0.00
2019-04-21T02:56:53.415Z,0.00
2019-04-21T02:57:51.913Z,0.00
2019-04-21T02:58:52.937Z,0.00
2019-04-21T02:59:50.272Z,0.00
2019-04-21T03:00:49.696Z,0.00
2019-04-21T03:02:46.817Z,0.00
2019-04-21T03:03:49.711Z,0.00
2019-04-21T03:05:08.724Z,0.00
2019-04-21T03:06:54.160Z,0.00
2019-04-21T03:07:59.681Z,0.00
2019-04-21T03:08:53.976Z,0.00
2019-04-21T03:09:44.497Z,0.00
2019-04-21T03:11:52.373Z,0.00
2019-04-21T03:12:50.879Z,0.00
2019-04-21T03:13:46.984Z,0.00
2019-04-21T03:14:56.606Z,0.00
2019-04-21T03:15:47.223Z,0.00
2019-04-21T03:17:49.937Z,0.00
2019-04-21T03:18:52.414Z,0.00
2019-04-21T03:20:00.732Z,0.00
2019-04-21T03:20:42.457Z,0.00
2019-04-21T03:21:52.516Z,0.00
2019-04-21T03:22:57.326Z,0.00
2019-04-21T03:24:01.232Z,0.00
2019-04-21T03:25:04.240Z,0.00
2019-04-21T03:25:52.259Z,0.00
2019-04-21T03:27:09.607Z,0.00
2019-04-21T03:28:46.019Z,0.00
2019-04-21T03:31:06.010Z,0.00
2019-04-21T03:35:15.917Z,0.00
2019-04-21T03:38:40.591Z,0.00
2019-04-21T03:39:54.144Z,0.00
2019-04-21T03:40:42.001Z,0.00
2019-04-21T03:42:00.237Z,0.00
2019-04-21T03:43:50.703Z,0.00
2019-04-21T03:44:46.048Z,0.00
2019-04-21T03:46:52.650Z,0.00
2019-04-21T03:47:43.506Z,0.00
2019-04-21T03:48:58.255Z,0.00
2019-04-21T03:50:50.875Z,0.00
2019-04-21T03:51:48.903Z,0.00
2019-04-21T03:54:54.126Z,0.00
2019-04-21T03:55:53.496Z,0.00
2019-04-21T03:56:59.208Z,0.00
2019-04-21T03:58:05.512Z,0.00
2019-04-21T03:58:56.337Z,0.00
2019-04-21T03:59:49.212Z,0.00
2019-04-21T04:01:55.743Z,4.00
2019-04-21T04:02:55.830Z,0.00
2019-04-21T04:04:44.245Z,0.00
2019-04-21T04:05:56.652Z,4.00
2019-04-21T04:10:50.098Z,4.00
2019-04-21T04:11:54.733Z,4.00
2019-04-21T04:14:03.925Z,4.00
2019-04-21T04:14:46.157Z,8.00
2019-04-21T04:15:45.368Z,12.00
2019-04-21T04:17:40.374Z,16.00
2019-04-21T04:20:48.030Z,28.00
2019-04-21T04:22:01.275Z,32.00
2019-04-21T04:22:48.177Z,36.00
2019-04-21T04:23:58.036Z,40.00
2019-04-21T04:25:55.533Z,52.00
2019-04-21T04:26:45.552Z,60.00
2019-04-21T04:27:59.441Z,68.00
2019-04-21T04:29:50.248Z,84.00
2019-04-21T04:30:46.260Z,96.00
2019-04-21T04:32:56.430Z,112.00
2019-04-21T04:33:57.742Z,124.00
2019-04-21T04:34:53.671Z,136.00
2019-04-21T04:36:58.880Z,164.00
2019-04-21T04:38:50.154Z,196.00
2019-04-21T04:39:57.104Z,216.00
2019-04-21T04:40:48.315Z,232.00
2019-04-21T04:41:53.105Z,252.00
2019-04-21T04:43:44.548Z,292.00
2019-04-21T04:45:44.490Z,332.00
2019-04-21T04:48:57.299Z,396.00
2019-04-21T04:50:50.057Z,428.00
2019-04-21T04:51:56.244Z,424.00
2019-04-21T04:53:43.930Z,408.00
2019-04-21T04:56:47.608Z,480.00
2019-04-21T04:57:57.754Z,508.00
2019-04-21T04:59:20.381Z,536.00
2019-04-21T05:00:43.501Z,592.00
2019-04-21T05:01:53.107Z,624.00
2019-04-21T05:02:42.065Z,648.00
2019-04-21T05:03:49.455Z,680.00
2019-04-21T05:05:46.828Z,740.00
2019-04-21T05:07:52.440Z,804.00
2019-04-21T05:09:47.241Z,864.00
2019-04-21T05:12:46.114Z,956.00
2019-04-21T05:13:51.377Z,984.00
2019-04-21T05:14:48.251Z,1016.00
2019-04-21T05:15:42.109Z,1044.00
2019-04-21T05:17:43.512Z,1104.00
2019-04-21T05:18:58.393Z,1144.00
2019-04-21T05:20:03.636Z,1200.00
2019-04-21T05:20:49.213Z,1280.00
2019-04-21T05:21:55.277Z,1312.00
2019-04-21T05:22:35.309Z,1280.00
2019-04-21T05:23:38.066Z,1276.00
2019-04-21T05:24:33.740Z,1288.00
2019-04-21T05:25:26.727Z,1308.00
2019-04-21T05:26:36.082Z,1364.00
2019-04-21T05:27:29.359Z,1420.00
2019-04-21T05:28:29.914Z,1448.00
2019-04-21T05:29:30.918Z,1468.00
2019-04-21T05:30:43.460Z,1508.00
2019-04-21T05:31:38.839Z,1552.00
2019-04-21T05:32:41.710Z,1472.00
2019-04-21T05:33:39.994Z,1384.00
2019-04-21T05:34:39.073Z,1364.00
2019-04-21T05:35:36.922Z,1360.00
2019-04-21T05:36:42.416Z,1368.00
2019-04-21T05:37:36.964Z,1380.00
2019-04-21T05:38:31.567Z,1392.00
2019-04-21T05:39:33.653Z,1404.00
2019-04-21T05:40:29.527Z,1420.00
2019-04-21T05:41:26.557Z,1436.00
2019-04-21T05:42:28.480Z,1452.00
2019-04-21T05:43:40.415Z,1472.00
2019-04-21T05:44:41.862Z,1488.00
2019-04-21T05:45:53.550Z,1504.00
2019-04-21T05:46:39.770Z,1524.00
2019-04-21T05:47:40.091Z,1536.00
2019-04-21T05:49:33.691Z,1568.00
2019-04-21T05:50:35.052Z,1588.00
2019-04-21T05:51:31.727Z,1608.00
2019-04-21T05:52:29.820Z,1636.00
2019-04-21T05:53:36.103Z,1656.00
2019-04-21T05:54:44.164Z,1680.00
2019-04-21T05:56:37.982Z,1740.00
2019-04-21T05:57:33.211Z,1772.00
2019-04-21T05:58:37.821Z,1804.00
2019-04-21T05:59:40.467Z,1828.00
2019-04-21T06:00:59.191Z,1844.00
2019-04-21T06:01:37.729Z,1872.00
2019-04-21T06:02:36.556Z,1900.00
2019-04-21T06:05:02.008Z,1972.00
2019-04-21T06:05:55.610Z,2004.00
2019-04-21T06:06:43.577Z,2044.00
2019-04-21T06:07:34.753Z,2128.00
2019-04-21T06:08:39.044Z,2220.00
2019-04-21T06:09:45.222Z,2284.00
2019-04-21T06:10:45.944Z,2340.00
2019-04-21T06:11:37.827Z,2364.00
2019-04-21T06:12:46.728Z,2420.00
2019-04-21T06:13:43.838Z,2532.00
2019-04-21T06:14:37.540Z,2572.00
2019-04-21T06:15:47.218Z,2676.00
2019-04-21T06:16:43.029Z,2864.00
2019-04-21T06:17:57.949Z,2876.00
2019-04-21T06:18:42.086Z,2648.00
2019-04-21T06:19:45.048Z,2440.00
2019-04-21T06:20:35.564Z,2352.00
2019-04-21T06:21:35.958Z,2388.00
2019-04-21T06:22:40.169Z,2380.00
2019-04-21T06:23:36.602Z,2348.00
2019-04-21T06:24:52.269Z,2336.00
2019-04-21T06:27:17.613Z,2308.00
2019-04-21T06:27:55.707Z,2284.00
2019-04-21T06:28:41.320Z,2280.00
2019-04-21T06:29:38.076Z,2276.00
2019-04-21T06:30:45.248Z,2280.00
2019-04-21T06:32:02.434Z,2292.00
2019-04-21T06:32:46.873Z,2292.00
2019-04-21T06:33:41.692Z,2288.00
2019-04-21T06:34:51.776Z,2280.00
2019-04-21T06:35:52.952Z,2276.00
2019-04-21T06:36:42.294Z,2276.00
2019-04-21T06:37:47.088Z,2280.00
2019-04-21T06:38:43.205Z,2304.00
2019-04-21T06:40:46.062Z,2376.00
2019-04-21T06:41:34.341Z,2400.00
2019-04-21T06:42:40.531Z,2412.00
2019-04-21T06:43:41.700Z,2404.00
2019-04-21T06:44:39.808Z,2428.00
2019-04-21T06:45:45.878Z,2452.00
2019-04-21T06:46:41.425Z,2488.00
2019-04-21T06:48:42.747Z,2480.00
2019-04-21T06:49:30.350Z,2404.00
2019-04-21T06:50:41.557Z,2332.00
2019-04-21T06:51:42.384Z,2300.00
2019-04-21T06:53:45.983Z,2272.00
2019-04-21T06:54:42.256Z,2260.00
2019-04-21T06:55:32.074Z,2248.00
2019-04-21T06:56:56.370Z,2248.00
2019-04-21T06:57:40.335Z,2252.00
2019-04-21T06:58:40.044Z,2256.00
2019-04-21T06:59:34.294Z,2260.00
2019-04-21T07:00:39.139Z,2256.00
2019-04-21T07:02:43.295Z,2252.00
2019-04-21T07:03:40.451Z,2252.00
2019-04-21T07:04:40.822Z,2256.00
2019-04-21T07:05:44.011Z,2264.00
2019-04-21T07:06:45.700Z,2256.00
2019-04-21T07:07:35.228Z,2240.00
2019-04-21T07:08:51.499Z,2228.00
2019-04-21T07:09:37.893Z,2220.00
2019-04-21T07:10:39.298Z,2216.00
2019-04-21T07:11:31.163Z,2220.00
2019-04-21T07:12:34.323Z,2224.00
2019-04-21T07:13:32.161Z,2228.00
2019-04-21T07:14:34.655Z,2236.00
2019-04-21T07:15:39.202Z,2244.00
2019-04-21T07:16:38.659Z,2252.00
2019-04-21T07:17:35.810Z,2268.00
2019-04-21T07:18:41.157Z,2280.00
2019-04-21T07:19:46.711Z,2292.00
2019-04-21T07:20:36.242Z,2312.00
2019-04-21T07:21:38.515Z,2320.00
2019-04-21T07:22:37.339Z,2336.00
2019-04-21T07:23:39.982Z,2356.00
2019-04-21T07:24:37.368Z,2380.00
2019-04-21T07:25:39.172Z,2400.00
2019-04-21T07:26:36.745Z,2424.00
2019-04-21T07:27:35.438Z,2452.00
2019-04-21T07:28:38.856Z,2480.00
2019-04-21T07:29:41.348Z,2508.00
2019-04-21T07:31:39.860Z,2568.00
2019-04-21T07:32:36.764Z,2596.00
2019-04-21T07:34:51.576Z,2636.00
2019-04-21T07:35:51.694Z,2648.00
2019-04-21T07:36:45.011Z,2664.00
2019-04-21T07:37:35.071Z,2684.00
2019-04-21T07:38:36.613Z,2700.00
2019-04-21T07:39:35.589Z,2708.00
2019-04-21T07:40:27.482Z,2724.00
2019-04-21T07:41:25.046Z,2736.00
2019-04-21T07:42:32.536Z,2744.00
2019-04-21T07:43:31.485Z,2760.00
2019-04-21T07:44:31.837Z,2772.00
2019-04-21T07:45:31.857Z,2784.00
2019-04-21T07:46:26.934Z,2792.00
2019-04-21T07:47:32.733Z,2808.00
2019-04-21T07:48:35.838Z,2820.00
2019-04-21T07:49:36.973Z,2820.00
2019-04-21T07:50:31.515Z,2820.00
2019-04-21T07:51:43.029Z,2812.00
2019-04-21T07:52:46.911Z,2808.00
2019-04-21T07:53:48.231Z,2800.00
2019-04-21T07:54:35.789Z,2800.00
2019-04-21T07:56:20.368Z,2792.00
2019-04-21T07:57:34.252Z,2792.00
2019-04-21T07:58:40.457Z,2796.00
2019-04-21T07:59:46.135Z,2792.00
2019-04-21T08:00:36.340Z,2792.00
2019-04-21T08:02:38.627Z,2804.00
2019-04-21T08:03:33.562Z,2808.00
2019-04-21T08:05:31.166Z,2800.00
2019-04-21T08:06:40.553Z,2808.00
2019-04-21T08:07:41.661Z,2800.00
2019-04-21T08:08:33.598Z,2776.00
2019-04-21T08:09:37.187Z,2748.00
2019-04-21T08:10:33.406Z,2736.00
2019-04-21T08:11:25.403Z,2732.00
2019-04-21T08:12:30.177Z,2728.00
2019-04-21T08:14:38.263Z,2728.00
2019-04-21T08:15:39.520Z,2736.00
2019-04-21T08:16:42.088Z,2740.00
2019-04-21T08:17:37.954Z,2752.00
2019-04-21T08:18:33.766Z,2768.00
2019-04-21T08:19:31.176Z,2792.00
2019-04-21T08:20:28.912Z,2804.00
2019-04-21T08:21:35.632Z,2816.00
2019-04-21T08:22:32.106Z,2832.00
2019-04-21T08:23:31.558Z,2860.00
2019-04-21T08:24:34.734Z,2876.00
2019-04-21T08:25:36.458Z,2900.00
2019-04-21T08:26:36.948Z,2964.00
2019-04-21T08:27:37.611Z,3008.00
2019-04-21T08:28:31.701Z,3040.00
2019-04-21T08:31:46.654Z,3200.00
2019-04-21T08:32:44.719Z,3208.00
2019-04-21T08:34:37.356Z,3244.00
2019-04-21T08:36:38.356Z,3252.00
2019-04-21T08:37:31.299Z,3296.00
2019-04-21T08:38:34.397Z,3340.00
2019-04-21T08:39:43.622Z,3332.00
2019-04-21T08:40:36.700Z,3408.00
2019-04-21T08:41:36.151Z,3472.00
2019-04-21T08:42:35.220Z,3524.00
2019-04-21T08:43:42.775Z,3556.00
2019-04-21T08:44:40.450Z,3616.00
2019-04-21T08:45:35.923Z,3652.00
2019-04-21T08:46:31.543Z,3704.00
2019-04-21T08:47:36.467Z,3748.00
2019-04-21T08:48:34.988Z,3752.00
2019-04-21T08:49:39.291Z,3788.00
2019-04-21T08:50:30.613Z,3784.00
2019-04-21T08:51:33.333Z,3756.00
2019-04-21T08:53:38.004Z,3736.00
2019-04-21T08:54:33.728Z,3760.00
2019-04-21T08:55:35.233Z,3828.00
2019-04-21T08:56:34.329Z,3832.00
2019-04-21T08:57:48.863Z,3840.00
2019-04-21T08:58:36.636Z,3836.00
2019-04-21T08:59:36.090Z,3864.00
2019-04-21T09:00:34.550Z,3824.00
2019-04-21T09:01:38.329Z,3784.00
2019-04-21T09:02:35.769Z,3740.00
2019-04-21T09:03:38.730Z,3720.00
2019-04-21T09:04:29.045Z,3692.00
2019-04-21T09:05:29.532Z,3696.00
2019-04-21T09:06:51.480Z,3724.00
2019-04-21T09:07:55.301Z,3760.00
2019-04-21T09:08:33.228Z,3808.00
2019-04-21T09:09:34.042Z,3872.00
2019-04-21T09:10:35.599Z,3844.00
2019-04-21T09:11:30.319Z,3780.00
2019-04-21T09:12:29.175Z,3796.00
2019-04-21T09:13:32.710Z,3824.00
2019-04-21T09:14:33.439Z,3740.00
2019-04-21T09:15:31.119Z,3676.00
2019-04-21T09:16:30.632Z,3696.00
2019-04-21T09:17:25.082Z,3676.00
2019-04-21T09:18:26.910Z,3660.00
2019-04-21T09:19:47.065Z,3636.00
2019-04-21T09:20:33.803Z,3572.00
2019-04-21T09:21:33.940Z,3544.00
2019-04-21T09:22:30.738Z,3528.00
2019-04-21T09:23:33.140Z,3484.00
2019-04-21T09:24:30.544Z,3488.00
2019-04-21T09:25:38.336Z,3488.00
2019-04-21T09:26:31.061Z,3548.00
2019-04-21T09:27:34.638Z,3492.00
2019-04-21T09:28:26.580Z,3472.00
2019-04-21T09:29:22.157Z,3396.00
2019-04-21T09:30:13.128Z,3352.00
2019-04-21T09:31:19.246Z,3260.00
2019-04-21T09:32:19.654Z,3240.00
2019-04-21T09:33:14.107Z,3272.00
2019-04-21T09:34:21.948Z,3320.00
2019-04-21T09:35:15.046Z,3332.00
2019-04-21T09:36:17.787Z,3296.00
2019-04-21T09:37:26.823Z,3324.00
2019-04-21T09:38:23.598Z,3272.00
2019-04-21T09:39:18.387Z,3196.00
2019-04-21T09:40:15.247Z,3120.00
2019-04-21T09:41:17.498Z,3080.00
2019-04-21T09:42:13.582Z,3076.00
2019-04-21T09:43:18.691Z,3124.00
2019-04-21T09:44:18.726Z,3160.00
2019-04-21T09:45:14.284Z,3212.00
2019-04-21T09:46:14.213Z,3228.00
2019-04-21T09:47:15.892Z,3240.00
2019-04-21T09:48:17.642Z,3256.00
2019-04-21T09:49:15.705Z,3256.00
2019-04-21T09:50:13.468Z,3212.00
2019-04-21T09:51:13.156Z,3180.00
2019-04-21T09:52:19.115Z,3128.00
2019-04-21T09:53:24.382Z,3008.00
2019-04-21T09:54:20.675Z,2876.00
2019-04-21T09:55:18.946Z,2796.00
2019-04-21T09:56:17.829Z,2756.00
2019-04-21T09:57:23.987Z,2728.00
2019-04-21T09:58:21.773Z,2680.00
2019-04-21T09:59:20.794Z,2652.00
2019-04-21T10:00:20.639Z,2640.00
2019-04-21T10:01:20.322Z,2628.00
2019-04-21T10:02:18.222Z,2616.00
2019-04-21T10:03:15.711Z,2628.00
2019-04-21T10:04:14.118Z,2616.00
2019-04-21T10:05:12.890Z,2612.00
2019-04-21T10:06:14.411Z,2628.00
2019-04-21T10:07:24.322Z,2628.00
2019-04-21T10:08:12.874Z,2640.00
2019-04-21T10:09:14.902Z,2632.00
2019-04-21T10:10:12.986Z,2616.00
2019-04-21T10:11:14.100Z,2612.00
2019-04-21T10:12:14.188Z,2612.00
2019-04-21T10:13:12.938Z,2612.00
2019-04-21T10:14:13.783Z,2600.00
2019-04-21T10:15:14.118Z,2584.00
2019-04-21T10:16:13.222Z,2580.00
2019-04-21T10:17:13.158Z,2584.00
2019-04-21T10:18:13.109Z,2608.00
2019-04-21T10:19:13.184Z,2628.00
2019-04-21T10:20:13.825Z,2648.00
2019-04-21T10:21:13.147Z,2684.00
2019-04-21T10:22:12.809Z,2716.00
2019-04-21T10:23:13.566Z,2768.00
2019-04-21T10:24:12.804Z,2800.00
2019-04-21T10:25:12.796Z,2824.00
2019-04-21T10:26:12.788Z,2812.00
2019-04-21T10:27:14.609Z,2812.00
2019-04-21T10:28:12.887Z,2828.00
2019-04-21T10:29:18.301Z,2808.00
2019-04-21T10:30:13.999Z,2776.00
2019-04-21T10:31:12.768Z,2768.00
2019-04-21T10:32:13.383Z,2756.00
2019-04-21T10:33:12.760Z,2784.00
2019-04-21T10:34:13.507Z,2792.00
2019-04-21T10:35:13.015Z,2796.00
2019-04-21T10:36:13.099Z,2812.00
2019-04-21T10:37:13.333Z,2800.00
2019-04-21T10:38:22.784Z,2788.00
2019-04-21T10:39:13.637Z,2788.00
2019-04-21T10:40:13.761Z,2772.00
2019-04-21T10:41:12.724Z,2764.00
2019-04-21T10:42:13.203Z,2764.00
2019-04-21T10:43:14.221Z,2764.00
2019-04-21T10:44:13.560Z,2744.00
2019-04-21T10:45:12.802Z,2744.00
2019-04-21T10:46:12.933Z,2740.00
2019-04-21T10:47:12.849Z,2724.00
2019-04-21T10:48:12.861Z,2720.00
2019-04-21T10:49:12.802Z,2728.00
2019-04-21T10:50:13.072Z,2732.00
2019-04-21T10:51:13.105Z,2728.00
2019-04-21T10:52:12.975Z,2740.00
2019-04-21T10:53:13.353Z,2756.00
2019-04-21T10:54:13.648Z,2760.00
2019-04-21T10:55:35.534Z,2760.00
2019-04-21T10:56:21.825Z,2752.00
2019-04-21T10:57:12.656Z,2744.00
2019-04-21T10:58:14.006Z,2748.00
2019-04-21T10:59:12.648Z,2752.00
2019-04-21T11:00:14.017Z,2768.00
2019-04-21T11:01:14.110Z,2776.00
2019-04-21T11:02:12.824Z,2772.00
2019-04-21T11:03:13.018Z,2780.00
2019-04-21T11:04:20.313Z,2792.00
2019-04-21T11:05:12.632Z,2788.00
2019-04-21T11:06:12.784Z,2792.00
2019-04-21T11:07:16.335Z,2804.00
2019-04-21T11:08:23.096Z,2812.00
2019-04-21T11:09:13.828Z,2820.00
2019-04-21T11:10:13.953Z,2828.00
2019-04-21T11:11:13.834Z,2852.00
2019-04-21T11:12:13.566Z,2864.00
2019-04-21T11:13:12.594Z,2872.00
2019-04-21T11:14:13.437Z,2872.00
2019-04-21T11:15:12.582Z,2876.00
2019-04-21T11:16:13.083Z,2880.00
2019-04-21T11:17:12.578Z,2892.00
2019-04-21T11:18:12.573Z,2900.00
2019-04-21T11:19:13.716Z,2908.00
2019-04-21T11:20:12.934Z,2932.00
2019-04-21T11:21:13.208Z,2936.00
2019-04-21T11:22:12.732Z,2948.00
2019-04-21T11:23:12.581Z,2956.00
2019-04-21T11:24:12.553Z,2976.00
2019-04-21T11:25:12.888Z,2992.00
2019-04-21T11:26:13.598Z,3000.00
2019-04-21T11:27:12.831Z,3012.00
2019-04-21T11:28:13.264Z,3032.00
2019-04-21T11:29:12.887Z,3048.00
2019-04-21T11:30:13.642Z,3072.00
2019-04-21T11:31:13.244Z,3096.00
2019-04-21T11:32:12.842Z,3120.00
2019-04-21T11:33:13.132Z,3132.00
2019-04-21T11:34:13.500Z,3144.00
2019-04-21T11:35:12.914Z,3168.00
2019-04-21T11:36:13.382Z,3184.00
2019-04-21T11:37:12.503Z,3200.00
2019-04-21T11:38:18.421Z,3216.00
2019-04-21T11:40:15.948Z,3252.00
2019-04-21T11:41:13.795Z,3260.00
2019-04-21T11:42:12.482Z,3268.00
2019-04-21T11:43:13.725Z,3280.00
2019-04-21T11:44:12.474Z,3292.00
2019-04-21T11:45:12.607Z,3312.00
2019-04-21T11:46:12.828Z,3328.00
2019-04-21T11:47:12.462Z,3356.00
2019-04-21T11:48:12.569Z,3376.00
2019-04-21T11:49:12.629Z,3388.00
2019-04-21T11:50:12.859Z,3424.00
2019-04-21T11:51:13.150Z,3412.00
2019-04-21T11:52:13.315Z,3440.00
2019-04-21T11:53:12.747Z,3460.00
2019-04-21T11:54:12.922Z,3464.00
2019-04-21T11:55:12.904Z,3468.00
2019-04-21T11:56:12.632Z,3476.00
2019-04-21T11:57:20.525Z,3496.00
2019-04-21T11:58:12.423Z,3524.00
2019-04-21T11:59:12.419Z,3580.00
2019-04-21T12:00:13.533Z,3624.00
2019-04-21T12:01:13.747Z,3616.00
2019-04-21T12:02:12.407Z,3656.00
2019-04-21T12:03:15.242Z,3684.00
2019-04-21T12:04:13.757Z,3728.00
2019-04-21T12:05:12.402Z,3740.00
2019-04-21T12:06:13.394Z,3756.00
2019-04-21T12:07:13.321Z,3772.00
2019-04-21T12:08:22.965Z,3760.00
2019-04-21T12:09:12.385Z,3768.00
2019-04-21T12:10:13.435Z,3772.00
2019-04-21T12:11:13.709Z,3764.00
2019-04-21T12:12:12.376Z,3764.00
2019-04-21T12:13:12.368Z,3772.00
2019-04-21T12:14:12.367Z,3816.00
2019-04-21T12:15:14.178Z,3760.00
2019-04-21T12:16:12.860Z,3764.00
2019-04-21T12:17:12.360Z,3772.00
2019-04-21T12:18:12.354Z,3776.00
2019-04-21T12:19:12.567Z,3764.00
2019-04-21T12:20:12.698Z,3756.00
2019-04-21T12:21:13.549Z,3792.00
2019-04-21T12:22:21.039Z,3804.00
2019-04-21T12:23:12.366Z,3820.00
2019-04-21T12:24:13.286Z,3828.00
2019-04-21T12:25:13.299Z,3836.00
2019-04-21T12:26:13.783Z,3844.00
2019-04-21T12:27:12.329Z,3824.00
2019-04-21T12:28:12.322Z,3876.00
2019-04-21T12:29:12.323Z,3936.00
2019-04-21T12:30:13.577Z,3932.00
2019-04-21T12:31:13.593Z,3972.00
2019-04-21T12:32:12.444Z,3988.00
2019-04-21T12:33:12.314Z,3980.00
2019-04-21T12:34:12.308Z,3896.00
2019-04-21T12:35:12.426Z,3852.00
2019-04-21T12:36:13.669Z,3816.00
2019-04-21T12:37:13.041Z,3780.00
2019-04-21T12:38:13.075Z,3644.00
2019-04-21T12:39:12.886Z,3604.00
2019-04-21T12:40:12.717Z,3612.00
2019-04-21T12:41:12.885Z,3644.00
2019-04-21T12:42:12.389Z,3664.00
2019-04-21T12:43:12.614Z,3620.00
2019-04-21T12:44:12.912Z,3640.00
2019-04-21T12:45:13.113Z,3612.00
2019-04-21T12:46:12.284Z,3552.00
2019-04-21T12:47:12.276Z,3540.00
2019-04-21T12:48:13.729Z,3560.00
2019-04-21T12:49:12.270Z,3656.00
2019-04-21T12:50:12.879Z,3708.00
2019-04-21T12:51:12.350Z,3776.00
2019-04-21T12:52:13.467Z,3748.00
2019-04-21T12:53:14.186Z,3820.00
2019-04-21T12:54:12.257Z,3840.00
2019-04-21T12:55:13.428Z,3820.00
2019-04-21T12:56:13.553Z,3804.00
2019-04-21T12:57:13.496Z,3812.00
2019-04-21T12:58:13.097Z,3840.00
2019-04-21T12:59:12.245Z,3784.00
2019-04-21T13:00:13.118Z,3688.00
2019-04-21T13:01:12.561Z,3704.00
2019-04-21T13:02:13.643Z,3728.00
2019-04-21T13:03:12.231Z,3656.00
2019-04-21T13:04:13.406Z,3628.00
2019-04-21T13:05:13.344Z,3640.00
2019-04-21T13:06:12.231Z,3652.00
2019-04-21T13:07:13.271Z,3636.00
2019-04-21T13:08:13.385Z,3596.00
2019-04-21T13:10:12.711Z,3504.00
2019-04-21T13:11:13.200Z,3540.00
2019-04-21T13:12:13.119Z,3504.00
2019-04-21T13:13:12.326Z,3504.00
2019-04-21T13:14:13.581Z,3484.00
2019-04-21T13:15:13.527Z,3500.00
2019-04-21T13:16:13.500Z,3536.00
2019-04-21T13:17:13.104Z,3420.00
2019-04-21T13:18:12.464Z,3448.00
2019-04-21T13:19:13.355Z,3460.00
2019-04-21T13:20:12.195Z,3444.00
2019-04-21T13:21:12.195Z,3392.00
2019-04-21T13:22:12.288Z,3360.00
2019-04-21T13:23:13.724Z,3376.00
2019-04-21T13:24:12.193Z,3412.00
2019-04-21T13:25:12.181Z,3448.00
2019-04-21T13:26:13.035Z,3448.00
2019-04-21T13:27:12.747Z,3428.00
2019-04-21T13:28:12.571Z,3372.00
2019-04-21T13:29:12.314Z,3396.00
2019-04-21T13:30:12.650Z,3288.00
2019-04-21T13:31:12.166Z,3236.00
2019-04-21T13:32:12.595Z,3252.00
2019-04-21T13:33:13.328Z,3256.00
2019-04-21T13:34:12.163Z,3248.00
2019-04-21T13:35:12.930Z,3176.00
2019-04-21T13:36:12.160Z,3276.00
2019-04-21T13:37:12.158Z,3340.00
2019-04-21T13:38:24.384Z,3388.00
2019-04-21T13:39:37.774Z,3284.00
2019-04-21T13:40:29.228Z,3208.00
2019-04-21T13:41:25.875Z,3148.00
2019-04-21T13:42:21.382Z,3144.00
2019-04-21T13:43:12.492Z,3132.00
2019-04-21T13:44:13.323Z,3104.00